Time;durP1;ratioP1;P1;durP2;ratioP2;P2;SDS_P1;SDS_P2;PMS_P1;PMS_P2;Temp;Humidity;BMP_temperature;BMP_pressure;BME280_temperature;BME280_humidity;BME280_pressure;Samples;Min_cycle;Max_cycle;Signal;HPM_P1;HPM_P2
2024/01/28 00:14:21;;;;;;;9.48;4.93;;;;;;;-143.21;64.38;74327.59;4905066;23;20275;-92
2024/01/28 00:19:42;;;;;;;;;;;;;;;;;;;;;
2024/01/28 00:22:19;;;;;;;9.83;4.47;;;;;;;-143.21;65.32;74365.31;4885989;29;20771;-93
2024/01/28 00:24:46;;;;;;;12.30;5.10;;;;;;;-143.21;65.56;74367.28;4938247;23;20617;-93
2024/01/28 00:33:11;;;;;;;11.50;5.57;;;;;;;-143.21;65.73;74367.28;4924102;23;20230;-91
2024/01/28 00:35:51;;;;;;;9.00;4.20;;;;;;;-143.21;65.69;74371.25;4928478;29;20195;-93
2024/01/28 00:38:31;;;;;;;8.40;4.90;;;;;;;-143.21;65.62;74369.28;4925239;29;20195;-92
2024/01/28 00:40:59;;;;;;;10.63;4.70;;;;;;;-143.21;66.13;74375.22;4927386;29;20203;-92
2024/01/28 00:43:25;;;;;;;6.50;4.37;;;;;;;-143.21;66.27;74369.28;4931627;23;20265;-93
2024/01/28 00:49:29;;;;;;;10.20;5.10;;;;;;;-143.21;65.57;74351.41;4923943;23;20243;-92
2024/01/28 00:51:58;;;;;;;11.83;4.63;;;;;;;-143.21;65.73;74349.44;4894538;29;20337;-93
2024/01/28 00:54:45;;;;;;;;;;;;;;;;;;;;;
2024/01/28 01:15:03;;;;;;;11.53;4.83;;;;;;;-143.21;66.26;74375.22;5083670;23;20238;-92
2024/01/28 01:17:30;;;;;;;8.00;4.17;;;;;;;-143.21;66.69;74373.25;4944813;29;20233;-92
2024/01/28 01:20:06;;;;;;;10.77;4.70;;;;;;;-143.21;66.42;74375.22;4930530;29;20203;-95
2024/01/28 01:25:25;;;;;;;8.37;4.00;;;;;;;-143.21;66.61;74363.31;4923521;29;20247;-91
2024/01/28 01:27:55;;;;;;;10.90;4.67;;;;;;;-143.21;66.47;74371.25;4923712;29;20212;-92
2024/01/28 01:33:09;;;;;;;7.20;4.30;;;;;;;-143.21;66.90;74389.13;4915174;23;20245;-93
2024/01/28 01:35:42;;;;;;;7.67;4.40;;;;;;;-143.21;67.05;74387.13;4919962;29;20206;-92
2024/01/28 01:40:54;;;;;;;9.43;4.30;;;;;;;-143.21;67.88;74416.91;4916551;29;20279;-92
2024/01/28 01:43:26;;;;;;;8.40;4.77;;;;;;;-143.21;67.86;74410.94;4925781;23;20245;-93
2024/01/28 01:45:53;;;;;;;10.00;4.60;;;;;;;-143.21;67.88;74403.00;4925761;29;20198;-91
2024/01/28 01:48:23;;;;;;;8.83;4.60;;;;;;;-143.21;67.98;74405.00;4923434;29;20456;-91
2024/01/28 01:50:57;;;;;;;7.93;5.07;;;;;;;-143.21;67.84;74403.00;4927525;29;20235;-89
2024/01/28 01:53:24;;;;;;;8.70;4.67;;;;;;;-143.21;67.53;74393.09;4922219;29;20215;-91
2024/01/28 01:55:50;;;;;;;13.17;5.00;;;;;;;-143.21;67.49;74397.06;4916821;29;20214;-90
2024/01/28 01:58:31;;;;;;;9.47;4.77;;;;;;;-143.21;67.95;74395.06;4918669;29;20214;-92
2024/01/28 02:01:08;;;;;;;13.30;5.33;;;;;;;-143.21;68.13;74410.94;4916102;23;20238;-92
2024/01/28 02:03:36;;;;;;;8.23;5.17;;;;;;;-143.21;68.20;74416.91;4921439;29;20636;-91
2024/01/28 02:06:08;;;;;;;10.53;4.90;;;;;;;-143.21;68.37;74416.91;4918807;29;20206;-91
2024/01/28 02:08:38;;;;;;;8.57;5.27;;;;;;;-143.21;68.18;74424.84;4924351;23;20226;-91
2024/01/28 02:11:14;;;;;;;10.23;5.57;;;;;;;-143.21;68.29;74430.78;4918524;29;20238;-90
2024/01/28 02:13:45;;;;;;;8.57;4.60;;;;;;;-143.21;67.98;74430.78;4911513;29;20274;-91
2024/01/28 02:16:15;;;;;;;10.57;5.37;;;;;;;-143.21;68.34;74440.72;4915243;29;20223;-90
2024/01/28 02:21:34;;;;;;;10.90;5.27;;;;;;;-143.21;68.62;74450.63;4923277;23;20223;-91
2024/01/28 02:27:51;;;;;;;10.17;4.77;;;;;;;-143.21;68.46;74454.59;4911472;23;20349;-93
2024/01/28 02:33:34;;;;;;;9.73;5.00;;;;;;;-143.21;68.72;74460.56;4939536;23;20241;-90
2024/01/28 02:36:19;;;;;;;11.33;5.17;;;;;;;-143.21;68.34;74462.53;4859324;29;20204;-91
2024/01/28 02:38:46;;;;;;;9.23;4.83;;;;;;;-143.21;68.42;74462.53;4916139;29;20213;-92
2024/01/28 02:41:23;;;;;;;10.17;4.70;;;;;;;-143.21;68.43;74458.56;4928492;29;20214;-92
2024/01/28 02:43:50;;;;;;;10.17;5.10;;;;;;;-143.21;68.22;74462.53;4925388;23;20404;-89
2024/01/28 02:49:09;;;;;;;9.37;5.07;;;;;;;-143.21;68.43;74460.56;4917070;29;20692;-91
2024/01/28 02:51:38;;;;;;;10.87;5.00;;;;;;;-143.21;68.59;74458.56;4927915;29;20203;-91
2024/01/28 02:54:14;;;;;;;6.87;4.83;;;;;;;-143.21;68.49;74462.53;4929345;29;20673;-92
2024/01/28 02:56:57;;;;;;;;;;;;;;;;;;;;;
2024/01/28 03:02:10;;;;;;;8.43;4.93;;;;;;;-143.21;68.26;74482.38;4916697;23;20242;-93
2024/01/28 03:24:23;;;;;;;9.00;4.90;;;;;;;-143.21;70.94;74579.63;5106486;23;20274;-90
2024/01/28 03:30:08;;;;;;;10.80;4.67;;;;;;;-143.21;71.67;74573.66;5045057;23;20222;-90
2024/01/28 03:32:49;;;;;;;8.83;5.00;;;;;;;-143.21;71.56;74567.72;4936053;23;20238;-91
2024/01/28 03:41:42;;;;;;;;;;;;;;;;;;;;;
2024/01/28 03:46:51;;;;;;;9.00;5.13;;;;;;;-143.21;71.95;74571.69;4868670;29;20286;-91
2024/01/28 03:53:51;;;;;;;10.03;4.90;;;;;;;-143.21;72.12;74593.50;4884832;23;20220;-92
2024/01/28 03:59:52;;;;;;;10.77;5.37;;;;;;;-143.21;72.33;74585.56;4834322;29;20220;-92
2024/01/28 04:02:19;;;;;;;10.27;5.50;;;;;;;-143.21;72.77;74617.31;4846752;29;20216;-92
2024/01/28 04:05:10;;;;;;;11.60;6.10;;;;;;;-143.21;72.97;74619.31;4840483;29;20669;-93
2024/01/28 04:13:42;;;;;;;8.60;5.23;;;;;;;-143.21;72.55;74637.19;4853094;23;20242;-91
2024/01/28 04:16:34;;;;;;;8.53;5.43;;;;;;;-143.21;72.69;74635.19;4915270;29;20238;-93
2024/01/28 04:19:16;;;;;;;10.67;5.50;;;;;;;-143.21;72.53;74637.19;4908263;29;20202;-92
2024/01/28 04:21:43;;;;;;;13.47;6.07;;;;;;;-143.21;72.13;74631.22;4918733;29;20226;-91
2024/01/28 04:24:12;;;;;;;14.30;5.40;;;;;;;-143.21;72.13;74633.19;4939182;23;20247;-91
2024/01/28 04:26:53;;;;;;;11.90;5.53;;;;;;;-143.21;72.62;74664.97;4921425;29;20293;-92
2024/01/28 04:29:34;;;;;;;16.43;6.20;;;;;;;-143.21;73.35;74680.84;4918328;23;20231;-91
2024/01/28 04:32:51;;;;;;;8.03;5.53;;;;;;;-143.21;73.16;74674.88;4885609;29;20211;-93
2024/01/28 04:38:38;;;;;;;16.50;7.63;;;;;;;-143.21;72.91;74676.88;4886601;23;20249;-93
2024/01/28 04:49:37;;;;;;;;;;;;;;;;;;;;;
2024/01/28 04:52:07;;;;;;;11.73;6.77;;;;;;;-143.21;72.96;74670.91;4903927;23;20607;-92
2024/01/28 04:54:34;;;;;;;12.47;6.80;;;;;;;-143.21;72.28;74661.00;4890233;29;20607;-93
2024/01/28 04:57:06;;;;;;;12.17;7.07;;;;;;;-143.21;72.75;74672.91;4902291;23;20289;-92
2024/01/28 05:14:41;;;;;;;20.03;9.67;;;;;;;-143.21;72.49;74684.81;4922441;23;20325;-90
2024/01/28 05:17:17;;;;;;;19.93;9.90;;;;;;;-143.21;72.50;74686.78;4920823;23;20231;-91
2024/01/28 05:19:48;;;;;;;19.73;9.60;;;;;;;-143.21;72.69;74688.78;4920570;23;20561;-89
2024/01/28 05:22:30;;;;;;;18.97;10.43;;;;;;;-143.21;72.62;74694.72;4933710;23;20310;-90
2024/01/28 05:28:21;;;;;;;23.27;11.50;;;;;;;-143.21;72.64;74702.66;4877358;29;20218;-92
2024/01/28 05:30:50;;;;;;;22.23;11.83;;;;;;;-143.21;72.70;74694.72;4838177;29;20241;-91
2024/01/28 05:33:18;;;;;;;26.67;11.77;;;;;;;-143.21;72.36;74700.69;4829313;29;20202;-92
2024/01/28 05:35:45;;;;;;;21.67;10.70;;;;;;;-143.21;72.48;74700.69;4891850;29;20231;-92
2024/01/28 05:38:31;;;;;;;17.73;10.17;;;;;;;-143.21;72.09;74700.69;4895580;29;20232;-91
2024/01/28 05:43:40;;;;;;;16.43;9.70;;;;;;;-143.21;71.65;74694.72;4883038;29;20223;-91
2024/01/28 05:46:09;;;;;;;19.37;11.00;;;;;;;-143.21;71.69;74696.72;4889774;29;20617;-91
2024/01/28 05:51:39;;;;;;;18.80;10.60;;;;;;;-143.21;71.59;74714.56;4907092;29;20297;-92
2024/01/28 05:54:33;;;;;;;23.43;10.10;;;;;;;-143.21;71.58;74716.56;4908539;23;20190;-92
2024/01/28 05:57:12;;;;;;;20.57;11.33;;;;;;;-143.21;71.26;74718.53;4915798;23;20374;-91
2024/01/28 05:59:45;;;;;;;18.47;10.90;;;;;;;-143.21;71.89;74730.44;4938494;23;20246;-93
2024/01/28 06:02:31;;;;;;;21.50;10.03;;;;;;;-143.21;71.75;74734.41;4939548;23;20245;-93
2024/01/28 06:04:58;;;;;;;19.37;9.53;;;;;;;-143.21;71.91;74732.44;4913485;29;20720;-90
2024/01/28 06:10:07;;;;;;;20.47;10.83;;;;;;;-143.21;72.79;74748.31;4966768;23;20527;-91
2024/01/28 06:12:44;;;;;;;18.17;10.17;;;;;;;-143.21;73.17;74746.31;4933489;23;20222;-91
2024/01/28 06:15:11;;;;;;;18.83;9.63;;;;;;;-143.21;73.02;74742.34;4920663;29;20225;-92
2024/01/28 06:17:51;;;;;;;19.83;10.67;;;;;;;-143.21;72.87;74736.41;4917826;29;20209;-91
2024/01/28 06:20:49;;;;;;;21.97;13.17;;;;;;;-143.21;72.63;74734.41;4905581;29;20699;-91
2024/01/28 06:23:16;;;;;;;28.40;15.00;;;;;;;-143.21;72.46;74724.50;4919335;29;20213;-91
2024/01/28 06:25:45;;;;;;;33.33;16.67;;;;;;;-143.21;72.31;74726.47;4918147;29;20694;-92
2024/01/28 06:28:22;;;;;;;27.00;14.23;;;;;;;-143.21;72.03;74720.53;4917283;29;20198;-90
2024/01/28 06:30:57;;;;;;;23.80;12.90;;;;;;;-143.21;72.28;74734.41;4913079;29;20234;-90
2024/01/28 06:39:06;;;;;;;25.77;13.27;;;;;;;-143.21;73.30;74744.34;4913767;29;20594;-91
2024/01/28 06:47:15;;;;;;;19.67;11.43;;;;;;;-143.21;72.37;74722.50;4869942;29;20207;-91
2024/01/28 06:49:52;;;;;;;19.07;11.70;;;;;;;-143.21;72.41;74708.63;4898713;29;20195;-92
2024/01/28 06:52:19;;;;;;;15.03;9.77;;;;;;;-143.21;72.10;74708.63;4915914;29;20576;-92
2024/01/28 06:54:46;;;;;;;22.70;11.87;;;;;;;-143.21;72.13;74716.56;4893108;29;20223;-92
2024/01/28 06:57:13;;;;;;;20.50;10.83;;;;;;;-143.21;72.13;74718.53;4902959;29;20333;-92
2024/01/28 07:00:00;;;;;;;;;;;;;;;;;;;;;
2024/01/28 07:02:47;;;;;;;28.10;12.23;;;;;;;-143.21;72.46;74722.50;4901929;29;20225;-91
2024/01/28 07:05:24;;;;;;;;;;;;;;;;;;;;;
2024/01/28 07:07:51;;;;;;;22.80;10.77;;;;;;;-143.21;72.06;74722.50;4902117;29;20715;-91
2024/01/28 07:10:18;;;;;;;17.87;10.63;;;;;;;-143.21;71.89;74730.44;4919883;23;20322;-91
2024/01/28 07:13:04;;;;;;;22.33;11.97;;;;;;;-143.21;72.39;74722.50;4919230;29;20210;-92
2024/01/28 07:15:37;;;;;;;22.70;12.13;;;;;;;-143.21;71.97;74722.50;4916139;29;20624;-92
2024/01/28 07:18:04;;;;;;;25.87;13.43;;;;;;;-143.21;72.12;74724.50;4916421;29;20277;-91
2024/01/28 07:20:31;;;;;;;23.03;12.27;;;;;;;-143.21;72.26;74726.47;4914939;29;20203;-91
2024/01/28 07:22:58;;;;;;;23.13;11.77;;;;;;;-143.21;71.63;74718.53;4915115;29;20659;-92
2024/01/28 07:28:03;;;;;;;23.63;12.13;;;;;;;-143.21;71.03;74696.72;4921268;23;20246;-90
2024/01/28 07:30:31;;;;;;;26.67;13.40;;;;;;;-143.21;70.43;74690.75;4920739;29;20247;-89
2024/01/28 07:33:00;;;;;;;17.57;11.07;;;;;;;-143.21;70.50;74700.69;4890925;29;20207;-88
2024/01/28 07:38:16;;;;;;;22.33;12.50;;;;;;;-143.21;70.79;74694.72;4912408;23;20395;-90
2024/01/28 07:41:16;;;;;;;19.03;10.43;;;;;;;-143.21;70.14;74690.75;4915058;29;20210;-91
2024/01/28 07:43:53;;;;;;;23.23;12.30;;;;;;;-143.21;70.30;74676.88;4892399;23;20239;-89
2024/01/28 07:46:28;;;;;;;18.90;10.43;;;;;;;-143.21;69.89;74680.84;4918707;23;20234;-92
2024/01/28 07:51:46;;;;;;;21.63;9.70;;;;;;;-143.21;70.33;74668.94;4868066;29;20200;-91
2024/01/28 07:54:36;;;;;;;16.03;9.47;;;;;;;-143.21;69.92;74668.94;4920671;23;20239;-90
2024/01/28 07:57:12;;;;;;;14.43;9.23;;;;;;;-143.21;70.04;74674.88;4903525;29;20231;-91
2024/01/28 08:02:24;;;;;;;19.88;10.35;;;;;;;-143.21;70.06;74666.94;4923994;23;20226;-90
2024/01/28 08:07:47;;;;;;;15.80;9.37;;;;;;;-143.21;71.02;74674.88;4875420;23;20226;-91
2024/01/28 08:10:15;;;;;;;15.93;9.93;;;;;;;-143.21;70.76;74664.97;4909768;29;20213;-93
2024/01/28 08:12:42;;;;;;;18.87;9.47;;;;;;;-143.21;70.26;74661.00;4909220;29;20210;-91
2024/01/28 08:15:10;;;;;;;16.53;9.63;;;;;;;-143.21;70.56;74655.03;4920454;29;20210;-89
2024/01/28 08:17:36;;;;;;;17.73;9.40;;;;;;;-143.21;70.06;74651.06;4921760;29;20660;-91
2024/01/28 08:20:07;;;;;;;14.73;8.47;;;;;;;-143.21;71.05;74678.84;4902676;29;20207;-90
2024/01/28 08:22:53;;;;;;;14.17;8.23;;;;;;;-143.21;70.77;74661.00;4911962;29;20297;-93
2024/01/28 08:25:32;;;;;;;15.70;7.30;;;;;;;-143.21;71.07;74686.78;4914014;29;20234;-92
2024/01/28 08:28:11;;;;;;;17.33;8.87;;;;;;;-143.21;71.23;74672.91;4905338;23;20238;-91
2024/01/28 08:30:46;;;;;;;13.70;8.57;;;;;;;-143.21;70.65;74653.06;4928167;23;20708;-92
2024/01/28 08:33:30;;;;;;;12.57;7.00;;;;;;;-143.21;70.21;74662.97;4906778;23;20238;-92
2024/01/28 08:38:39;;;;;;;16.47;7.70;;;;;;;-143.21;70.27;74655.03;4912318;29;20577;-89
2024/01/28 08:41:07;;;;;;;13.00;7.70;;;;;;;-143.21;70.35;74645.09;4914106;29;20207;-89
2024/01/28 08:43:35;;;;;;;12.10;7.13;;;;;;;-143.21;69.47;74633.19;4913429;29;20202;-89
2024/01/28 08:46:24;;;;;;;19.00;8.93;;;;;;;-143.21;69.79;74629.22;4919155;29;20225;-90
2024/01/28 08:55:44;;;;;;;12.17;7.00;;;;;;;-143.21;68.82;74619.31;5626152;23;20234;-90
2024/01/28 09:01:11;;;;;;;16.20;9.60;;;;;;;-143.21;69.01;74607.41;5289781;23;20209;-95
2024/01/28 09:03:45;;;;;;;14.77;8.20;;;;;;;-143.21;68.64;74601.44;4933937;23;20682;-90
2024/01/28 09:06:25;;;;;;;;;;;;;;;;;;;;;
2024/01/28 09:12:39;;;;;;;7.47;5.30;;;;;;;-143.21;67.24;74597.47;4857239;23;20728;-90
2024/01/28 09:15:15;;;;;;;10.30;6.40;;;;;;;-143.21;67.66;74599.47;4858289;29;20287;-91
2024/01/28 09:17:43;;;;;;;12.97;6.87;;;;;;;-143.21;67.19;74573.66;4867008;23;20296;-91
2024/01/28 09:20:22;;;;;;;13.93;7.57;;;;;;;-143.21;66.71;74549.84;4901238;29;20227;-93
2024/01/28 09:22:57;;;;;;;9.50;6.33;;;;;;;-143.21;66.29;74539.94;4893579;29;20646;-94
2024/01/28 09:25:33;;;;;;;11.13;6.17;;;;;;;-143.21;66.02;74543.91;4892489;29;20238;-92
2024/01/28 09:28:03;;;;;;;9.63;5.50;;;;;;;-143.21;65.88;74535.97;4885109;29;20231;-90
2024/01/28 09:30:30;;;;;;;10.33;6.63;;;;;;;-143.21;65.70;74524.06;4866936;29;20219;-91
2024/01/28 09:32:57;;;;;;;12.67;6.10;;;;;;;-143.21;65.43;74522.06;4875689;29;20325;-92
2024/01/28 09:35:28;;;;;;;11.43;6.07;;;;;;;-143.21;65.66;74510.16;4870757;29;20214;-95
2024/01/28 09:37:57;;;;;;;12.43;6.73;;;;;;;-143.21;64.76;74490.31;4878149;29;20200;-93
2024/01/28 09:40:24;;;;;;;12.93;7.20;;;;;;;-143.21;64.17;74480.41;4882989;29;20873;-93
2024/01/28 09:43:11;;;;;;;13.90;6.27;;;;;;;-143.21;64.38;74490.31;4869029;29;20587;-91
2024/01/28 09:45:43;;;;;;;14.63;7.43;;;;;;;-143.21;64.67;74502.22;4868983;29;20301;-89
2024/01/28 09:48:11;;;;;;;9.90;6.87;;;;;;;-143.21;64.72;74526.03;4887521;29;20218;-91
2024/01/28 09:50:39;;;;;;;13.97;8.83;;;;;;;-143.21;64.63;74510.16;4884652;29;20220;-90
2024/01/28 09:53:06;;;;;;;14.97;8.73;;;;;;;-143.21;64.95;74502.22;4883045;29;20280;-91
2024/01/28 09:55:35;;;;;;;11.37;7.47;;;;;;;-143.21;64.85;74480.41;4905543;23;20750;-92
2024/01/28 09:58:23;;;;;;;12.33;7.30;;;;;;;-143.21;64.25;74472.47;4904931;29;20212;-95
2024/01/28 10:06:28;;;;;;;12.00;7.33;;;;;;;-143.21;64.64;74490.31;4888486;29;20235;-91
2024/01/28 10:11:42;;;;;;;11.27;6.83;;;;;;;-143.21;64.29;74464.53;4890346;29;20209;-91
2024/01/28 10:14:09;;;;;;;13.90;7.90;;;;;;;-143.21;64.64;74472.47;4895973;29;20208;-92
2024/01/28 10:16:45;;;;;;;17.67;8.20;;;;;;;-143.21;64.80;74470.47;4896917;29;20208;-91
2024/01/28 10:19:21;;;;;;;14.97;8.47;;;;;;;-143.21;64.53;74478.41;4896286;29;20203;-93
2024/01/28 10:21:48;;;;;;;15.60;7.33;;;;;;;-143.21;64.74;74486.34;4896216;29;20207;-93
2024/01/28 10:24:17;;;;;;;12.23;7.20;;;;;;;-143.21;64.58;74476.44;4891917;29;20209;-93
2024/01/28 10:26:44;;;;;;;12.60;6.80;;;;;;;-143.21;64.51;74470.47;4910014;29;20712;-91
2024/01/28 10:29:14;;;;;;;10.97;6.80;;;;;;;-143.21;64.54;74470.47;4924955;29;20237;-91
2024/01/28 10:31:42;;;;;;;12.57;7.80;;;;;;;-143.21;65.22;74466.50;4906557;29;20292;-93
2024/01/28 10:34:10;;;;;;;14.73;7.80;;;;;;;-143.21;64.11;74452.63;4898053;29;20201;-91
2024/01/28 10:36:39;;;;;;;16.60;7.80;;;;;;;-143.21;64.56;74460.56;4898777;29;20196;-92
2024/01/28 10:39:17;;;;;;;15.60;7.93;;;;;;;-143.21;65.27;74462.53;4904212;29;20234;-91
2024/01/28 10:41:45;;;;;;;12.10;7.00;;;;;;;-143.21;64.73;74460.56;4909648;29;20204;-89
2024/01/28 10:44:14;;;;;;;15.77;8.53;;;;;;;-143.21;64.91;74446.66;4909594;29;20725;-90
2024/01/28 10:46:44;;;;;;;15.83;9.17;;;;;;;-143.21;65.14;74438.72;4907289;29;20256;-89
2024/01/28 10:49:21;;;;;;;19.10;8.30;;;;;;;-143.21;64.46;74440.72;4902700;29;20218;-91
2024/01/28 10:51:51;;;;;;;9.90;6.47;;;;;;;-143.21;64.31;74454.59;4908498;29;20206;-92
2024/01/28 10:57:02;;;;;;;13.03;7.10;;;;;;;-143.21;65.36;74488.34;4888581;29;20235;-91
2024/01/28 10:59:39;;;;;;;;;;;;;;;;;;;;;
2024/01/28 11:02:41;;;;;;;13.27;7.70;;;;;;;-143.21;65.53;74462.53;4904037;23;20230;-91
2024/01/28 11:05:22;;;;;;;12.87;6.90;;;;;;;-143.21;65.32;74482.38;4877769;29;20431;-94
2024/01/28 11:07:53;;;;;;;11.57;6.87;;;;;;;-143.21;65.64;74488.34;4887310;23;20311;-92
2024/01/28 11:10:21;;;;;;;10.60;6.93;;;;;;;-143.21;65.91;74488.34;4918108;23;20232;-92
2024/01/28 11:12:53;;;;;;;19.87;9.27;;;;;;;-143.21;66.58;74500.25;4921536;23;20234;-91
2024/01/28 11:15:30;;;;;;;16.30;9.63;;;;;;;-143.21;66.58;74490.31;4915048;29;20200;-92
2024/01/28 11:18:01;;;;;;;13.07;8.37;;;;;;;-143.21;66.42;74476.44;4928183;29;20206;-93
2024/01/28 11:20:58;;;;;;;12.40;7.97;;;;;;;-143.21;65.94;74482.38;4938765;23;20234;-93
2024/01/28 11:41:27;;;;;;;10.27;6.30;;;;;;;-143.21;65.72;74496.28;4903807;23;20232;-92
2024/01/28 11:44:04;;;;;;;17.63;8.17;;;;;;;-143.21;65.25;74488.34;4910819;29;20208;-93
2024/01/28 11:46:31;;;;;;;15.07;8.23;;;;;;;-143.21;65.24;74474.44;4912720;29;20690;-91
2024/01/28 11:51:43;;;;;;;17.70;8.77;;;;;;;-143.21;66.11;74518.09;5279405;23;20338;-91
2024/01/28 11:55:16;;;;;;;;;;;;;;;;;;;;;
2024/01/28 12:03:53;;;;;;;;;;;;;;;;;;;;;
2024/01/28 12:10:28;;;;;;;13.20;8.23;;;;;;;-143.21;68.87;74619.31;4894085;29;20214;-93
2024/01/28 12:16:15;;;;;;;13.33;8.20;;;;;;;-143.21;69.47;74605.41;4864530;29;20245;-92
2024/01/28 12:30:42;;;;;;;15.70;9.10;;;;;;;-143.21;68.74;74573.66;4911341;29;20195;-92
2024/01/28 12:48:38;;;;;;;13.37;8.13;;;;;;;-143.21;67.61;74567.72;4924853;29;20230;-91
2024/01/28 12:56:52;;;;;;;15.63;9.80;;;;;;;-143.21;68.15;74579.63;4858775;29;20237;-92
2024/01/28 12:59:19;;;;;;;19.10;9.20;;;;;;;-143.21;68.22;74577.63;4859656;29;20197;-91
2024/01/28 13:01:46;;;;;;;17.50;9.73;;;;;;;-143.21;68.32;74575.66;4919494;23;20257;-92
2024/01/28 13:04:15;;;;;;;19.70;10.23;;;;;;;-143.21;68.61;74577.63;4931822;29;20206;-94
2024/01/28 13:15:07;;;;;;;16.20;9.20;;;;;;;-143.21;67.03;74543.91;4950734;23;20300;-92
2024/01/28 13:45:00;;;;;;;18.33;10.30;;;;;;;-143.21;67.48;74551.84;5092761;23;20276;-96
2024/01/28 13:53:13;;;;;;;;;;;;;;;;;;;;;
2024/01/28 14:03:49;;;;;;;23.97;13.03;;;;;;;-143.21;67.11;74547.88;4912303;23;20242;-92
2024/01/28 14:06:16;;;;;;;20.30;12.23;;;;;;;-143.21;67.50;74553.81;4923274;29;20230;-90
2024/01/28 14:08:43;;;;;;;23.40;12.30;;;;;;;-143.21;67.34;74565.72;4912277;29;20726;-92
2024/01/28 14:17:13;;;;;;;22.70;12.17;;;;;;;-143.21;67.64;74547.88;5026659;23;20247;-93
2024/01/28 14:22:27;;;;;;;18.87;11.17;;;;;;;-143.21;67.87;74549.84;4918662;29;21436;-93
2024/01/28 14:24:54;;;;;;;19.27;12.37;;;;;;;-143.21;68.03;74553.81;4917178;29;20287;-91
2024/01/28 14:27:21;;;;;;;18.43;11.10;;;;;;;-143.21;68.34;74553.81;4916599;29;20266;-95
2024/01/28 14:29:50;;;;;;;19.30;10.93;;;;;;;-143.21;68.53;74567.72;4911922;29;20207;-92
2024/01/28 14:32:19;;;;;;;16.33;9.73;;;;;;;-143.21;68.88;74583.59;4919882;29;20238;-89
2024/01/28 14:34:46;;;;;;;15.60;8.97;;;;;;;-143.21;69.11;74581.59;4930254;29;20744;-92
2024/01/28 14:37:13;;;;;;;18.10;10.73;;;;;;;-143.21;69.64;74607.41;4925047;29;20199;-89
2024/01/28 14:39:40;;;;;;;20.17;11.93;;;;;;;-143.21;70.01;74597.47;4922696;29;20635;-90
2024/01/28 14:42:08;;;;;;;21.43;11.50;;;;;;;-143.21;70.39;74581.59;4924037;29;20291;-91
2024/01/28 14:44:35;;;;;;;22.67;13.17;;;;;;;-143.21;70.13;74593.50;4901468;29;20245;-91
2024/01/28 14:47:19;;;;;;;24.27;12.77;;;;;;;-143.21;70.37;74597.47;4923406;29;20455;-92
2024/01/28 14:50:09;;;;;;;27.13;13.10;;;;;;;-143.21;70.22;74585.56;4915515;29;20207;-91
2024/01/28 14:52:51;;;;;;;;;;;;;;;;;;;;;
2024/01/28 15:01:43;;;;;;;20.20;12.07;;;;;;;-143.21;71.50;74615.34;4915925;29;20201;-91
2024/01/28 15:04:10;;;;;;;21.33;12.20;;;;;;;-143.21;72.07;74645.09;4916200;29;20211;-89
2024/01/28 15:06:39;;;;;;;19.53;11.47;;;;;;;-143.21;72.51;74657.00;4904327;29;20226;-90
2024/01/28 15:09:10;;;;;;;17.93;10.80;;;;;;;-143.21;72.08;74633.19;4919696;29;20235;-89
2024/01/28 15:11:37;;;;;;;20.50;11.43;;;;;;;-143.21;72.46;74655.03;4904887;29;20207;-90
2024/01/28 15:14:04;;;;;;;20.23;12.27;;;;;;;-143.21;73.06;74655.03;4905317;29;20290;-90
2024/01/28 15:16:31;;;;;;;24.70;13.83;;;;;;;-143.21;72.99;74657.00;4914277;29;20204;-88
2024/01/28 15:18:59;;;;;;;30.23;14.87;;;;;;;-143.21;72.41;74647.09;4931571;23;20235;-89
2024/01/28 15:24:28;;;;;;;32.77;17.23;;;;;;;-143.21;72.61;74629.22;4898424;29;20314;-89
2024/01/28 15:26:54;;;;;;;32.50;18.00;;;;;;;-143.21;72.69;74647.09;4900831;29;20258;-88
2024/01/28 15:29:21;;;;;;;36.63;19.63;;;;;;;-143.21;73.52;74659.00;4898124;29;20210;-89
2024/01/28 15:31:48;;;;;;;28.23;15.50;;;;;;;-143.21;73.19;74649.09;4895906;29;20738;-89
2024/01/28 15:34:15;;;;;;;25.93;15.40;;;;;;;-143.21;73.11;74649.09;4889439;29;20216;-89
2024/01/28 15:36:42;;;;;;;27.03;14.63;;;;;;;-143.21;73.04;74653.06;4893266;29;20199;-88
2024/01/28 15:39:11;;;;;;;25.53;13.97;;;;;;;-143.21;73.62;74680.84;4901057;29;20218;-88
2024/01/28 15:41:39;;;;;;;22.87;13.60;;;;;;;-143.21;74.17;74680.84;4885153;29;20199;-89
2024/01/28 15:44:06;;;;;;;26.60;14.30;;;;;;;-143.21;74.40;74680.84;4894008;29;20199;-90
2024/01/28 15:46:33;;;;;;;21.17;12.63;;;;;;;-143.21;74.07;74672.91;4891814;29;20297;-90
2024/01/28 15:49:00;;;;;;;25.97;14.43;;;;;;;-143.21;74.22;74682.81;4887693;29;20245;-90
2024/01/28 15:51:27;;;;;;;24.23;13.67;;;;;;;-143.21;74.47;74692.75;4897097;29;21043;-87
2024/01/28 15:53:54;;;;;;;27.63;15.03;;;;;;;-143.21;74.54;74690.75;4908664;29;20236;-89
2024/01/28 15:56:21;;;;;;;24.60;14.37;;;;;;;-143.21;74.58;74698.69;4910128;29;20274;-89
2024/01/28 15:58:50;;;;;;;28.97;15.47;;;;;;;-143.21;74.59;74708.63;4908331;29;20212;-89
2024/01/28 16:01:17;;;;;;;30.23;15.80;;;;;;;-143.21;75.12;74708.63;4897799;29;20219;-89
2024/01/28 16:03:44;;;;;;;28.53;15.93;;;;;;;-143.21;75.55;74718.53;4894362;29;20231;-89
2024/01/28 16:06:11;;;;;;;28.07;15.57;;;;;;;-143.21;76.07;74728.47;4862903;29;20210;-88
2024/01/28 16:08:38;;;;;;;25.83;13.67;;;;;;;-143.21;75.78;74724.50;4890276;29;20770;-87
2024/01/28 16:11:11;;;;;;;21.60;13.00;;;;;;;-143.21;76.30;74738.38;4913420;29;20198;-89
2024/01/28 16:13:38;;;;;;;26.50;14.67;;;;;;;-143.21;76.65;74752.28;4886488;29;20207;-88
2024/01/28 16:16:07;;;;;;;27.50;14.73;;;;;;;-143.21;76.54;74730.44;4895374;29;20262;-88
2024/01/28 16:18:34;;;;;;;28.30;15.80;;;;;;;-143.21;76.65;74742.34;4921075;29;20417;-88
2024/01/28 16:21:07;;;;;;;24.47;13.80;;;;;;;-143.21;76.95;74750.28;4904191;29;20214;-90
2024/01/28 16:23:34;;;;;;;24.17;15.10;;;;;;;-143.21;76.78;74744.34;4904585;29;20234;-88
2024/01/28 16:26:04;;;;;;;33.17;17.40;;;;;;;-143.21;76.57;74740.38;5120911;23;20230;-89
2024/01/28 16:28:31;;;;;;;36.47;18.77;;;;;;;-143.21;76.40;74734.41;5054966;23;20349;-90
2024/01/28 16:30:58;;;;;;;33.30;17.37;;;;;;;-143.21;76.28;74728.47;4895124;29;20214;-90
2024/01/28 16:33:32;;;;;;;35.57;19.57;;;;;;;-143.21;76.58;74738.38;5033296;23;20322;-88
2024/01/28 16:36:02;;;;;;;38.80;20.77;;;;;;;-143.21;76.36;74724.50;4905174;29;20210;-89
2024/01/28 16:38:29;;;;;;;42.70;23.20;;;;;;;-143.21;76.19;74718.53;4884542;29;20203;-89
2024/01/28 16:40:59;;;;;;;40.80;22.53;;;;;;;-143.21;75.89;74720.53;4897940;29;20619;-90
2024/01/28 16:43:29;;;;;;;34.83;19.70;;;;;;;-143.21;75.80;74716.56;4893869;29;20203;-88
2024/01/28 16:45:58;;;;;;;35.77;19.67;;;;;;;-143.21;75.73;74714.56;4901961;29;20218;-89
2024/01/28 16:48:27;;;;;;;36.73;18.60;;;;;;;-143.21;75.83;74714.56;4900698;29;20231;-88
2024/01/28 16:50:54;;;;;;;36.23;20.83;;;;;;;-143.21;75.35;74708.63;4897068;23;20242;-89
2024/01/28 16:53:21;;;;;;;38.70;20.23;;;;;;;-143.21;75.80;74720.53;4917827;23;20717;-89
2024/01/28 16:55:54;;;;;;;26.07;15.67;;;;;;;-143.21;75.66;74716.56;4990523;23;20246;-89
2024/01/28 16:58:28;;;;;;;36.97;18.93;;;;;;;-143.21;75.60;74724.50;4915946;29;20225;-92
2024/01/28 17:00:54;;;;;;;28.03;16.97;;;;;;;-143.21;75.85;74742.34;4912452;29;20206;-88
2024/01/28 17:03:21;;;;;;;34.47;19.30;;;;;;;-143.21;76.13;74730.44;4895919;29;20199;-89
2024/01/28 17:06:14;;;;;;;35.20;18.87;;;;;;;-143.21;76.19;74750.28;4913679;29;20580;-89
2024/01/28 17:08:41;;;;;;;37.57;19.50;;;;;;;-143.21;76.17;74744.34;4913891;29;20238;-88
2024/01/28 17:11:21;;;;;;;37.93;19.63;;;;;;;-143.21;76.40;74748.31;4925633;29;20222;-89
2024/01/28 17:16:57;;;;;;;29.27;17.10;;;;;;;-143.21;75.97;74744.34;4915580;23;20245;-90
2024/01/28 17:22:03;;;;;;;34.87;19.20;;;;;;;-143.21;76.10;74748.31;4924835;23;20257;-88
2024/01/28 17:24:30;;;;;;;29.43;17.37;;;;;;;-143.21;76.14;74740.38;4919940;29;20222;-89
2024/01/28 17:26:56;;;;;;;32.23;17.27;;;;;;;-143.21;75.33;74742.34;4928898;29;20218;-89
2024/01/28 17:29:25;;;;;;;33.10;17.50;;;;;;;-143.21;75.73;74736.41;4920212;29;20215;-89
2024/01/28 17:31:52;;;;;;;38.83;20.50;;;;;;;-143.21;75.84;74734.41;4913173;29;20214;-89